map of AAR home
AAR - Airport
Location
City:  Århus, Denmark
Near (Alt.):Aarhus
Name:Tirstrup
ICAO:EKAH
IATA:AAR

Details
Type:Airport (Aerodrome, Airfield)
Latitude:56°18'00"N (56.300017)
Longitude:10°37'08"E (10.619008)
Elevation:82 ft (25 m)
Variation:3.22°E (WMM2015 magnetic declination)
0.15° annual change
Runways:2
Longest:9111 × 75 ft (2777 × 23 m), paved

Time
Time Zone:UTC+1 (DST+2)
Local Time:

Weather
METAR:EKAH 180550Z AUTO 23005KT 200V260 9999NDV SCT048/// M02/M03 Q1010
TAF:EKAH 180512Z 1806/1906 25006KT 9999 FEW030= TAF EKBI 180512Z 1806/1906 24005KT 9999 FEW030

Related Locations
Nearby:
Farthest:CHT: 11513 mi / 18529 km
Waitangi [Tuuta], CIT, NZ

Find:

   beyond  
but within

Other Information
Maps:
NOTAMs:
Links:
Sources:

  
  • flag of Denmark
  

Sectional Chart

Flight Planning
at skyvector.com

Satellite Image

Google Maps Satellite view

 

Copyright © 2004-2019 Karl L. Swartz. All rights reserved.
The Great Circle Mapper name and logo are trademarks of the Great Circle Mapper.
All other trademarks mentioned herein belong to their respective owners.
Please see credits for attibutions and further copyright information.

  Follow gcmap on Facebook Follow gcmap on Twitter Follow gcmap on Google+ GCmap on LinkedIn

hCard Microformat

Geo Microformat